createdAt,value
2023-04-03T00:00:47.625Z,3.20
2023-04-03T00:03:14.287Z,2.80
2023-04-03T00:05:41.522Z,2.75
2023-04-03T00:08:10.487Z,2.70
2023-04-03T00:10:38.325Z,2.72
2023-04-03T00:13:06.355Z,2.50
2023-04-03T00:15:33.344Z,2.35
2023-04-03T00:18:00.258Z,2.45
2023-04-03T00:20:28.259Z,2.40
2023-04-03T00:22:55.051Z,2.50
2023-04-03T00:25:23.500Z,2.30
2023-04-03T00:27:50.852Z,2.10
2023-04-03T00:30:19.333Z,2.40
2023-04-03T00:32:46.174Z,2.28
2023-04-03T00:35:16.677Z,2.30
2023-04-03T00:37:44.254Z,2.75
2023-04-03T00:40:12.243Z,2.20
2023-04-03T00:42:39.983Z,2.17
2023-04-03T00:45:06.780Z,2.10
2023-04-03T00:47:33.582Z,1.92
2023-04-03T00:50:01.777Z,2.20
2023-04-03T00:52:30.700Z,2.10
2023-04-03T00:55:00.739Z,1.90
2023-04-03T00:57:28.078Z,2.00
2023-04-03T01:00:00.552Z,2.00
2023-04-03T01:02:27.529Z,1.92
2023-04-03T01:04:54.254Z,1.90
2023-04-03T01:07:23.697Z,1.88
2023-04-03T01:09:52.931Z,1.90
2023-04-03T01:12:32.118Z,1.80
2023-04-03T01:15:01.587Z,2.00
2023-04-03T01:17:48.238Z,1.90
2023-04-03T01:20:17.667Z,1.65
2023-04-03T01:23:02.352Z,1.67
2023-04-03T01:25:29.081Z,1.77
2023-04-03T01:27:56.450Z,1.80
2023-04-03T01:30:28.729Z,1.50
2023-04-03T01:32:55.588Z,1.70
2023-04-03T01:35:22.514Z,1.60
2023-04-03T01:37:49.295Z,1.67
2023-04-03T01:40:16.196Z,1.70
2023-04-03T01:42:42.847Z,1.75
2023-04-03T01:45:09.806Z,1.80
2023-04-03T01:47:36.465Z,1.70
2023-04-03T01:50:03.555Z,1.90
2023-04-03T01:52:33.055Z,1.65
2023-04-03T01:54:59.661Z,2.00
2023-04-03T01:57:26.596Z,1.85
2023-04-03T01:59:53.502Z,1.80
2023-04-03T02:02:23.093Z,1.67
2023-04-03T02:04:49.725Z,1.83
2023-04-03T02:07:16.456Z,1.80
2023-04-03T02:09:43.091Z,1.95
2023-04-03T02:12:09.894Z,1.85
2023-04-03T02:14:36.633Z,1.92
2023-04-03T02:17:09.616Z,2.03
2023-04-03T02:19:36.762Z,1.83
2023-04-03T02:22:05.833Z,1.90
2023-04-03T02:24:33.257Z,1.73
2023-04-03T02:26:59.979Z,1.90
2023-04-03T02:29:26.715Z,1.70
2023-04-03T02:31:54.189Z,1.70
2023-04-03T02:34:22.457Z,1.80
2023-04-03T02:36:50.404Z,2.00
2023-04-03T02:39:20.125Z,1.90
2023-04-03T02:41:48.035Z,2.00
2023-04-03T02:44:20.330Z,1.92
2023-04-03T02:46:47.482Z,2.30
2023-04-03T02:49:14.159Z,2.30
2023-04-03T02:51:40.911Z,2.00
2023-04-03T02:54:07.913Z,2.20
2023-04-03T02:56:37.451Z,2.17
2023-04-03T02:59:04.368Z,2.17
2023-04-03T03:01:32.601Z,2.00
2023-04-03T03:04:00.425Z,2.05
2023-04-03T03:06:27.865Z,2.25
2023-04-03T03:08:55.092Z,2.10
2023-04-03T03:11:22.040Z,2.10
2023-04-03T03:13:48.894Z,1.90
2023-04-03T03:16:15.610Z,2.22
2023-04-03T03:18:42.321Z,2.00
2023-04-03T03:21:10.730Z,1.88
2023-04-03T03:23:37.716Z,2.08
2023-04-03T03:26:06.696Z,2.00
2023-04-03T03:28:35.777Z,2.20
2023-04-03T03:31:02.455Z,1.80
2023-04-03T03:33:30.295Z,1.95
2023-04-03T03:35:57.107Z,2.03
2023-04-03T03:38:24.538Z,1.90
2023-04-03T03:40:52.300Z,2.13
2023-04-03T03:43:21.250Z,2.00
2023-04-03T03:45:53.520Z,1.80
2023-04-03T03:48:21.430Z,1.95
2023-04-03T03:50:48.977Z,1.80
2023-04-03T03:53:16.112Z,1.88
2023-04-03T03:55:43.434Z,2.08
2023-04-03T03:58:10.510Z,1.85
2023-04-03T04:00:37.991Z,1.90
2023-04-03T04:03:04.913Z,1.75
2023-04-03T04:05:32.349Z,1.63
2023-04-03T04:08:01.036Z,1.90
2023-04-03T04:10:27.971Z,1.70
2023-04-03T04:12:57.366Z,1.70
2023-04-03T04:15:27.960Z,1.83
2023-04-03T04:17:56.264Z,1.65
2023-04-03T04:20:23.449Z,1.65
2023-04-03T04:22:50.207Z,1.67
2023-04-03T04:25:18.598Z,1.80
2023-04-03T04:27:45.764Z,1.67
2023-04-03T04:30:15.007Z,2.05
2023-04-03T04:32:42.453Z,2.20
2023-04-03T04:35:09.608Z,2.45
2023-04-03T04:37:40.798Z,2.10
2023-04-03T04:40:08.563Z,1.92
2023-04-03T04:42:35.343Z,1.75
2023-04-03T04:45:02.242Z,1.63
2023-04-03T04:47:30.734Z,1.45
2023-04-03T04:49:57.737Z,1.50
2023-04-03T04:52:24.774Z,1.60
2023-04-03T04:54:51.529Z,1.70
2023-04-03T04:57:18.637Z,1.33
2023-04-03T04:59:46.574Z,1.42
2023-04-03T05:02:13.409Z,1.60
2023-04-03T05:04:42.617Z,1.50
2023-04-03T05:07:15.364Z,1.60
2023-04-03T05:09:43.305Z,1.60
2023-04-03T05:12:11.889Z,1.63
2023-04-03T05:14:44.974Z,1.85
2023-04-03T05:17:11.845Z,1.60
2023-04-03T05:19:42.354Z,1.63
2023-04-03T05:22:10.442Z,1.45
2023-04-03T05:24:37.280Z,1.70
2023-04-03T05:27:05.703Z,1.42
2023-04-03T05:29:35.776Z,1.50
2023-04-03T05:32:04.364Z,1.35
2023-04-03T05:34:31.007Z,1.70
2023-04-03T05:36:58.075Z,1.50
2023-04-03T05:39:26.566Z,1.30
2023-04-03T05:41:53.212Z,1.35
2023-04-03T05:44:19.989Z,1.60
2023-04-03T05:46:48.371Z,1.50
2023-04-03T05:49:15.716Z,1.48
2023-04-03T05:51:42.406Z,1.50
2023-04-03T05:54:28.734Z,1.50
2023-04-03T05:57:03.081Z,1.70
2023-04-03T05:59:30.185Z,1.50
2023-04-03T06:01:58.786Z,1.60
2023-04-03T06:04:25.834Z,1.80
2023-04-03T06:06:58.570Z,1.67
2023-04-03T06:09:28.178Z,1.92
2023-04-03T06:11:54.895Z,1.50
2023-04-03T06:14:23.677Z,1.52
2023-04-03T06:16:50.577Z,1.75
2023-04-03T06:19:17.509Z,1.80
2023-04-03T06:21:48.540Z,1.80
2023-04-03T06:24:17.175Z,1.90
2023-04-03T06:26:44.213Z,1.73
2023-04-03T06:29:11.248Z,1.60
2023-04-03T06:31:37.915Z,1.60
2023-04-03T06:34:06.230Z,1.80
2023-04-03T06:36:35.505Z,1.92
2023-04-03T06:39:02.734Z,1.63
2023-04-03T06:41:29.490Z,2.00
2023-04-03T06:43:58.421Z,1.75
2023-04-03T06:46:26.778Z,1.75
2023-04-03T06:48:53.972Z,1.73
2023-04-03T06:51:26.181Z,1.80
2023-04-03T06:53:54.734Z,2.03
2023-04-03T06:56:24.602Z,2.00
2023-04-03T06:58:52.537Z,2.10
2023-04-03T07:01:22.622Z,1.80
2023-04-03T07:03:50.231Z,1.60
2023-04-03T07:06:18.016Z,1.80
2023-04-03T07:08:45.358Z,1.88
2023-04-03T07:11:13.910Z,1.90
2023-04-03T07:13:40.974Z,1.60
2023-04-03T07:16:08.288Z,2.10
2023-04-03T07:18:35.083Z,1.80
2023-04-03T07:21:01.892Z,1.88
2023-04-03T07:23:28.939Z,2.00
2023-04-03T07:25:55.732Z,1.85
2023-04-03T07:28:23.676Z,1.90
2023-04-03T07:30:52.496Z,1.80
2023-04-03T07:33:20.813Z,1.70
2023-04-03T07:35:47.555Z,1.70
2023-04-03T07:38:14.580Z,1.90
2023-04-03T07:40:43.952Z,1.80
2023-04-03T07:43:10.794Z,1.98
2023-04-03T07:45:37.918Z,1.90
2023-04-03T07:48:04.918Z,2.13
2023-04-03T07:50:32.281Z,1.70
2023-04-03T07:52:59.350Z,1.90
2023-04-03T07:55:26.438Z,1.80
2023-04-03T07:57:53.061Z,1.90
2023-04-03T08:00:20.726Z,1.55
2023-04-03T08:02:52.561Z,1.95
2023-04-03T08:05:20.725Z,1.88
2023-04-03T08:07:47.885Z,1.83
2023-04-03T08:10:15.490Z,1.98
2023-04-03T08:12:42.817Z,1.92
2023-04-03T08:15:10.067Z,1.80
2023-04-03T08:17:37.103Z,1.80
2023-04-03T08:20:05.989Z,1.88
2023-04-03T08:22:32.654Z,1.90
2023-04-03T08:24:59.869Z,2.08
2023-04-03T08:27:28.236Z,1.75
2023-04-03T08:29:55.914Z,1.80
2023-04-03T08:32:23.301Z,2.05
2023-04-03T08:34:49.942Z,1.90
2023-04-03T08:37:17.346Z,1.88
2023-04-03T08:39:44.516Z,2.03
2023-04-03T08:42:50.200Z,2.20
2023-04-03T08:45:23.094Z,2.00
2023-04-03T08:48:06.865Z,1.90
2023-04-03T08:50:43.813Z,1.73
2023-04-03T08:53:17.053Z,1.77
2023-04-03T08:55:48.456Z,1.77
2023-04-03T08:58:20.916Z,2.05
2023-04-03T09:01:11.713Z,1.65
2023-04-03T09:03:40.962Z,1.90
2023-04-03T09:06:17.352Z,1.48
2023-04-03T09:08:50.136Z,2.00
2023-04-03T09:11:48.667Z,1.98
2023-04-03T09:14:28.080Z,1.63
2023-04-03T09:16:59.783Z,1.73
2023-04-03T09:19:42.890Z,1.80
2023-04-03T09:22:23.632Z,1.80
2023-04-03T09:25:23.060Z,1.80
2023-04-03T09:27:50.905Z,1.60
2023-04-03T09:30:23.392Z,1.83
2023-04-03T09:32:52.934Z,1.75
2023-04-03T09:35:47.394Z,1.60
2023-04-03T09:38:22.046Z,1.70
2023-04-03T09:40:52.474Z,1.70
2023-04-03T09:43:35.612Z,1.65
2023-04-03T09:46:31.277Z,1.60
2023-04-03T09:51:35.480Z,1.60
2023-04-03T09:54:32.440Z,1.60
2023-04-03T09:57:04.817Z,1.58
2023-04-03T09:59:32.258Z,1.70
2023-04-03T10:02:01.875Z,1.67
2023-04-03T10:04:41.567Z,1.58
2023-04-03T10:07:31.236Z,1.77
2023-04-03T10:10:00.009Z,1.80
2023-04-03T10:12:26.728Z,1.77
2023-04-03T10:15:02.103Z,1.70
2023-04-03T10:18:06.526Z,1.92
2023-04-03T10:20:41.703Z,1.80
2023-04-03T10:23:46.845Z,1.63
2023-04-03T10:26:22.954Z,1.75
2023-04-03T10:29:03.143Z,1.50
2023-04-03T10:31:51.694Z,1.60
2023-04-03T10:34:18.361Z,1.90
2023-04-03T10:36:53.814Z,1.80
2023-04-03T10:39:32.937Z,1.50
2023-04-03T10:42:20.846Z,1.95
2023-04-03T10:45:18.465Z,1.70
2023-04-03T10:47:55.693Z,1.70
2023-04-03T10:50:28.416Z,2.10
2023-04-03T10:53:07.174Z,1.90
2023-04-03T10:55:39.441Z,1.80
2023-04-03T10:58:08.104Z,1.83
2023-04-03T11:00:38.652Z,1.92
2023-04-03T11:03:34.121Z,1.80
2023-04-03T11:06:03.210Z,1.88
2023-04-03T11:08:56.209Z,1.90
2023-04-03T11:11:26.773Z,1.95
2023-04-03T11:14:01.420Z,1.90
2023-04-03T11:16:32.027Z,2.22
2023-04-03T11:19:11.676Z,2.72
2023-04-03T11:21:48.479Z,2.47
2023-04-03T11:24:25.216Z,2.28
2023-04-03T11:26:53.432Z,1.75
2023-04-03T11:29:34.319Z,2.00
2023-04-03T11:32:44.202Z,1.60
2023-04-03T11:35:11.013Z,1.80
2023-04-03T11:37:47.168Z,1.70
2023-04-03T11:40:16.615Z,2.00
2023-04-03T11:42:47.837Z,1.75
2023-04-03T11:45:26.475Z,1.77
2023-04-03T11:47:59.688Z,1.63
2023-04-03T11:50:42.868Z,1.67
2023-04-03T11:53:09.892Z,1.70
2023-04-03T11:55:48.836Z,1.58
2023-04-03T11:58:18.507Z,1.50
2023-04-03T12:00:47.876Z,1.48
2023-04-03T12:03:26.533Z,1.48
2023-04-03T12:06:08.382Z,1.50
2023-04-03T12:08:35.310Z,1.30
2023-04-03T12:11:14.460Z,1.50
2023-04-03T12:13:53.376Z,1.40
2023-04-03T12:16:43.261Z,1.30
2023-04-03T12:19:15.993Z,1.52
2023-04-03T12:21:46.595Z,1.58
2023-04-03T12:24:22.331Z,1.40
2023-04-03T12:26:58.125Z,1.75
2023-04-03T12:29:43.219Z,1.60
2023-04-03T12:32:44.803Z,1.50
2023-04-03T12:35:42.682Z,1.30
2023-04-03T12:38:15.241Z,1.40
2023-04-03T12:41:09.526Z,1.85
2023-04-03T12:43:56.256Z,1.77
2023-04-03T12:46:36.175Z,1.67
2023-04-03T12:49:03.139Z,1.80
2023-04-03T12:51:36.140Z,1.60
2023-04-03T12:54:15.114Z,1.60
2023-04-03T12:56:42.037Z,1.60
2023-04-03T12:59:20.605Z,1.30
2023-04-03T13:01:58.596Z,1.65
2023-04-03T13:04:25.940Z,1.60
2023-04-03T13:06:53.416Z,1.63
2023-04-03T13:09:28.895Z,1.83
2023-04-03T13:12:02.597Z,1.33
2023-04-03T13:14:30.102Z,1.60
2023-04-03T13:17:04.996Z,1.80
2023-04-03T13:22:16.742Z,1.63
2023-04-03T13:24:44.834Z,1.75
2023-04-03T13:27:12.112Z,1.77
2023-04-03T13:29:40.024Z,1.70
2023-04-03T13:32:07.646Z,1.63
2023-04-03T13:34:40.246Z,1.42
2023-04-03T13:37:09.139Z,1.40
2023-04-03T13:39:38.353Z,1.60
2023-04-03T13:42:34.598Z,1.70
2023-04-03T13:45:24.839Z,1.52
2023-04-03T13:47:53.846Z,1.50
2023-04-03T13:50:23.707Z,1.65
2023-04-03T13:53:09.471Z,1.40
2023-04-03T13:55:38.866Z,1.70
2023-04-03T13:58:08.649Z,1.52
2023-04-03T14:00:38.735Z,1.80
2023-04-03T14:03:34.550Z,1.50
2023-04-03T14:08:41.797Z,1.70
2023-04-03T14:11:30.620Z,1.50
2023-04-03T14:14:00.417Z,1.60
2023-04-03T14:16:31.429Z,1.50
2023-04-03T14:18:58.207Z,1.77
2023-04-03T14:21:25.450Z,1.80
2023-04-03T14:23:52.149Z,1.65
2023-04-03T14:26:23.749Z,1.60
2023-04-03T14:28:54.260Z,1.80
2023-04-03T14:31:21.764Z,1.98
2023-04-03T14:33:48.864Z,1.90
2023-04-03T14:36:18.371Z,1.77
2023-04-03T14:38:46.108Z,1.70
2023-04-03T14:41:18.587Z,1.70
2023-04-03T14:43:46.097Z,1.67
2023-04-03T14:46:17.109Z,1.67
2023-04-03T14:48:44.279Z,1.60
2023-04-03T14:51:12.537Z,1.90
2023-04-03T14:53:40.047Z,1.77
2023-04-03T14:56:13.664Z,1.90
2023-04-03T14:58:40.412Z,1.90
2023-04-03T15:01:07.487Z,1.75
2023-04-03T15:03:34.268Z,1.88
2023-04-03T15:06:01.100Z,1.90
2023-04-03T15:08:30.547Z,1.75
2023-04-03T15:10:57.504Z,1.70
2023-04-03T15:13:25.358Z,1.80
2023-04-03T15:15:52.553Z,1.50
2023-04-03T15:18:21.790Z,1.70
2023-04-03T15:20:49.187Z,1.63
2023-04-03T15:23:17.120Z,1.63
2023-04-03T15:25:45.864Z,1.83
2023-04-03T15:28:20.337Z,1.60
2023-04-03T15:30:47.408Z,1.80
2023-04-03T15:33:14.419Z,1.70
2023-04-03T15:35:41.646Z,1.65
2023-04-03T15:38:08.695Z,1.77
2023-04-03T15:40:35.561Z,2.00
2023-04-03T15:43:02.263Z,1.65
2023-04-03T15:45:32.339Z,1.80
2023-04-03T15:47:59.093Z,1.70
2023-04-03T15:50:25.945Z,1.90
2023-04-03T15:52:55.476Z,1.80
2023-04-03T15:55:26.360Z,1.90
2023-04-03T15:57:53.952Z,1.80
2023-04-03T16:00:21.350Z,1.92
2023-04-03T16:02:48.870Z,1.98
2023-04-03T16:05:18.256Z,1.70
2023-04-03T16:07:45.945Z,1.70
2023-04-03T16:14:12.602Z,1.88
2023-04-03T16:16:39.335Z,1.75
2023-04-03T16:19:06.284Z,1.63
2023-04-03T16:21:33.795Z,2.50
2023-04-03T16:24:01.028Z,2.15
2023-04-03T16:26:27.827Z,2.22
2023-04-03T16:28:55.423Z,1.90
2023-04-03T16:31:23.000Z,1.75
2023-04-03T16:33:49.697Z,1.77
2023-04-03T16:36:16.642Z,1.70
2023-04-03T16:38:43.210Z,1.85
2023-04-03T16:41:09.809Z,1.80
2023-04-03T16:43:37.846Z,1.60
2023-04-03T16:46:04.793Z,1.38
2023-04-03T16:48:31.909Z,1.30
2023-04-03T16:50:59.268Z,1.70
2023-04-03T16:53:26.631Z,1.50
2023-04-03T16:55:53.562Z,1.60
2023-04-03T16:58:21.750Z,1.50
2023-04-03T17:00:49.352Z,1.60
2023-04-03T17:03:16.026Z,1.60
2023-04-03T17:05:42.636Z,1.58
2023-04-03T17:08:09.384Z,1.70
2023-04-03T17:10:36.435Z,1.40
2023-04-03T17:13:03.989Z,1.90
2023-04-03T17:15:30.630Z,1.60
2023-04-03T17:17:57.192Z,1.50
2023-04-03T17:20:23.954Z,1.40
2023-04-03T17:22:50.525Z,1.40
2023-04-03T17:25:17.491Z,1.80
2023-04-03T17:27:44.042Z,1.60
2023-04-03T17:30:11.522Z,1.40
2023-04-03T17:32:38.676Z,1.42
2023-04-03T17:35:05.907Z,1.40
2023-04-03T17:37:32.501Z,1.60
2023-04-03T17:39:59.112Z,1.40
2023-04-03T17:42:25.924Z,1.50
2023-04-03T17:44:52.483Z,1.50
2023-04-03T17:47:19.043Z,1.27
2023-04-03T17:49:45.615Z,1.35
2023-04-03T17:52:12.211Z,1.42
2023-04-03T17:54:38.810Z,1.60
2023-04-03T17:57:05.675Z,1.50
2023-04-03T17:59:32.506Z,1.70
2023-04-03T18:01:59.226Z,1.55
2023-04-03T18:04:26.085Z,1.58
2023-04-03T18:06:53.828Z,1.50
2023-04-03T18:09:25.759Z,1.30
2023-04-03T18:11:52.712Z,1.45
2023-04-03T18:14:24.275Z,1.35
2023-04-03T18:16:50.943Z,1.52
2023-04-03T18:19:23.314Z,1.58
2023-04-03T18:21:52.505Z,1.40
2023-04-03T18:24:20.905Z,1.67
2023-04-03T18:26:51.128Z,1.60
2023-04-03T18:29:17.996Z,1.50
2023-04-03T18:35:50.803Z,1.42
2023-04-03T18:38:17.447Z,1.42
2023-04-03T18:40:44.855Z,1.35
2023-04-03T18:43:12.324Z,1.50
2023-04-03T18:45:39.163Z,1.42
2023-04-03T18:48:06.184Z,1.23
2023-04-03T18:50:32.869Z,1.60
2023-04-03T18:52:59.447Z,1.50
2023-04-03T18:55:26.067Z,1.40
2023-04-03T18:57:52.646Z,1.60
2023-04-03T19:00:19.335Z,1.30
2023-04-03T19:02:46.220Z,1.15
2023-04-03T19:05:16.252Z,1.45
2023-04-03T19:07:44.518Z,1.30
2023-04-03T19:10:17.227Z,1.50
2023-04-03T19:12:45.320Z,1.45
2023-04-03T19:15:13.798Z,1.50
2023-04-03T19:17:40.700Z,1.55
2023-04-03T19:20:09.483Z,1.67
2023-04-03T19:22:36.179Z,1.70
2023-04-03T19:25:04.472Z,1.60
2023-04-03T19:27:31.382Z,1.77
2023-04-03T19:29:58.033Z,1.98
2023-04-03T19:32:24.934Z,1.98
2023-04-03T19:34:51.556Z,1.90
2023-04-03T19:37:19.386Z,1.80
2023-04-03T19:39:46.385Z,1.92
2023-04-03T19:42:13.311Z,1.70
2023-04-03T19:44:40.101Z,1.90
2023-04-03T19:47:06.714Z,2.10
2023-04-03T19:49:33.794Z,1.75
2023-04-03T19:52:00.380Z,2.00
2023-04-03T19:54:27.064Z,2.25
2023-04-03T19:56:53.674Z,2.08
2023-04-03T19:59:20.266Z,2.00
2023-04-03T20:01:47.058Z,2.28
2023-04-03T20:04:13.760Z,1.67
2023-04-03T20:06:40.532Z,2.03
2023-04-03T20:09:07.160Z,1.90
2023-04-03T20:11:37.586Z,1.77
2023-04-03T20:14:04.449Z,1.55
2023-04-03T20:16:31.130Z,1.77
2023-04-03T20:18:57.782Z,1.88
2023-04-03T20:21:34.922Z,1.63
2023-04-03T20:24:02.754Z,1.50
2023-04-03T20:26:31.721Z,1.58
2023-04-03T20:29:00.218Z,1.70
2023-04-03T20:31:28.180Z,1.58
2023-04-03T20:33:54.839Z,1.80
2023-04-03T20:36:23.481Z,1.80
2023-04-03T20:38:52.457Z,1.60
2023-04-03T20:41:19.407Z,1.85
2023-04-03T20:43:47.435Z,1.60
2023-04-03T20:46:14.574Z,1.77
2023-04-03T20:48:41.572Z,1.95
2023-04-03T20:51:11.246Z,1.90
2023-04-03T20:53:38.616Z,1.90
2023-04-03T20:56:06.814Z,1.92
2023-04-03T20:58:34.328Z,2.05
2023-04-03T21:01:01.203Z,2.00
2023-04-03T21:03:30.207Z,2.45
2023-04-03T21:05:59.726Z,2.10
2023-04-03T21:09:04.965Z,2.30
2023-04-03T21:12:09.245Z,2.23
2023-04-03T21:15:13.694Z,2.13
2023-04-03T21:18:08.256Z,2.40
2023-04-03T21:20:34.982Z,2.00
2023-04-03T21:23:01.606Z,2.05
2023-04-03T21:25:28.252Z,2.20
2023-04-03T21:27:55.108Z,1.98
2023-04-03T21:30:22.801Z,2.00
2023-04-03T21:32:49.392Z,1.85
2023-04-03T21:35:16.138Z,2.00
2023-04-03T21:37:42.762Z,1.80
2023-04-03T21:40:09.621Z,1.90
2023-04-03T21:42:37.249Z,1.95
2023-04-03T21:45:04.171Z,2.20
2023-04-03T21:47:30.798Z,2.28
2023-04-03T21:49:57.387Z,2.30
2023-04-03T21:52:24.058Z,2.22
2023-04-03T21:54:50.612Z,2.50
2023-04-03T21:57:17.202Z,2.28
2023-04-03T21:59:43.910Z,2.20
2023-04-03T22:02:10.625Z,2.10
2023-04-03T22:04:37.732Z,1.80
2023-04-03T22:07:04.344Z,2.30
2023-04-03T22:09:31.016Z,2.20
2023-04-03T22:11:57.594Z,2.20
2023-04-03T22:14:24.259Z,1.98
2023-04-03T22:16:50.908Z,2.13
2023-04-03T22:19:17.517Z,1.90
2023-04-03T22:21:44.128Z,2.10
2023-04-03T22:24:10.755Z,1.92
2023-04-03T22:26:39.529Z,2.20
2023-04-03T22:29:06.146Z,2.20
2023-04-03T22:31:32.864Z,1.80
2023-04-03T22:34:03.853Z,1.88
2023-04-03T22:36:30.828Z,2.10
2023-04-03T22:38:57.730Z,1.98
2023-04-03T22:41:24.346Z,1.80
2023-04-03T22:43:50.913Z,1.85
2023-04-03T22:46:17.634Z,1.77
2023-04-03T22:48:45.831Z,2.00
2023-04-03T22:51:12.521Z,1.98
2023-04-03T22:53:39.121Z,1.88
2023-04-03T22:56:11.092Z,2.10
2023-04-03T22:58:39.000Z,1.70
2023-04-03T23:01:09.083Z,1.77
2023-04-03T23:03:36.543Z,1.85
2023-04-03T23:06:04.252Z,1.80
2023-04-03T23:08:32.632Z,2.00
2023-04-03T23:10:59.566Z,1.75
2023-04-03T23:13:26.410Z,2.03
2023-04-03T23:15:56.974Z,1.67
2023-04-03T23:18:24.078Z,1.80
2023-04-03T23:20:51.931Z,1.63
2023-04-03T23:23:24.545Z,1.88
2023-04-03T23:25:54.878Z,1.88
2023-04-03T23:28:21.749Z,1.75
2023-04-03T23:30:48.837Z,1.88
2023-04-03T23:33:15.539Z,1.90
2023-04-03T23:35:47.946Z,1.92
2023-04-03T23:38:15.499Z,1.83
2023-04-03T23:40:42.666Z,1.77
2023-04-03T23:43:09.302Z,1.77
2023-04-03T23:45:36.357Z,1.90
2023-04-03T23:48:03.034Z,1.80
2023-04-03T23:50:29.644Z,1.80
2023-04-03T23:52:56.212Z,1.60
2023-04-03T23:55:22.986Z,1.92
2023-04-03T23:57:49.710Z,1.90
